Share

Auburn, NE

The Nincehelser Farm (KNEPERU2) Elev 1061 ft | 40.50 °N, 95.78 °W | Change Station

Current weather conditions updated 4 minutes ago

Scattered Clouds
Scattered Clouds
79.3 °F
Feels Like 79 °F
N
13.0
Wind Variable Wind from SSE
Sunrise 6:39 AM
Sunset 8:06 PM
Moon Waning Gibbous

Today is forecast to be Much Warmer than yesterday. A few showers developing late tonight.

Pressure 30.02 in
Visibility 10.0 miles
Clouds Scattered Clouds 9500 ft
Heat Index 79 °F
Dew Point 48 °F
Humidity 34%
Rainfall 0.00 in
Snow Depth Not available.
UV 8 out of 16
Pollen 11.60 out of 12
Air Quality Not available.
Flu Activity Sporadic
METAR KAFK 191855Z AUTO 19020G25KT 10SM SCT095 24/06 A3002 RMK AO2 T02410063

More Conditions Fewer Conditions

Pressure 30.02 in
Visibility 10.0 miles
Clouds Scattered Clouds 9500 ft
Heat Index 79 °F
Dew Point 48 °F
Humidity 34%
Rainfall 0.00 in
Snow Depth Not available.
UV 8 out of 16
Pollen 11.60 out of 12
Air Quality Not available.
Flu Activity Sporadic
METAR KAFK 191855Z AUTO 19020G25KT 10SM SCT095 24/06 A3002 RMK AO2 T02410063

More Conditions Fewer Conditions

10-Day Weather Forecast

Almanac

Astronomy

Apr. 19, 2014 Rise Set
Actual Time 6:39 AM CDT 8:06 PM CDT
Civil Twilight 6:10 AM CDT 8:35 PM CDT
Nautical Twilight 5:36 AM CDT 9:09 PM CDT
Astronomical Twilight 5:00 AM CDT 9:45 PM CDT
Moon No Moon Rise 9:58 AM CDT
Length of Visible Light 14h 24m
Length of Day
13h 27m
Tomorrow will be 2m 29s longer.
Waning Gibbous, 77% of the Moon is Illuminated
Today
Waning Gibbous
Apr 22
Last Quarter
Apr 29
New
May 6
First Quarter
May 14
Full

Today's Extremes

State Highs State Lows

Community

  • Piriapolis
    Piriapolis
  • A Glorious Morning
    A Glorious Morning
  • Tender Rays Of Hope
    Tender Rays Of Hope
  • Bleeding Hearts
    Bleeding Hearts
  • Sunset Silhouettes
    Sunset Silhouettes

WunderPhotos

Upload Photos

1,702,845 photos uploaded!

WunderBlogs® & News

Nearby

Snow Depth

Station Depth Elevation
No new snow has been reported.

Coastal Water Temperatures

Place Temperature
No Stations Reporting

Earthquake Activity

City Distance Mag. Time & Date
No recent earthquake activity has been reported nearby.
Minimum magnitude displayed is 2.5.

Nearby Weather Stations

Station Location Temp. Heat Index Dew Point Humidity Wind Precip. Elev Updated Type
MesoWest JULIAN , Julian, NE 75 °F 73 °F - - North  at  - 0.00 in / hr 965 ft 12:00 PM CDT MADIS
MesoWest HOWE , Stella, NE 74 °F 72 °F - - North  at  - 0.00 in / hr 1019 ft 11:35 AM CDT MADIS
The Nincehelser Farm, Peru, NE 79.3 °F 79 °F 48 °F 34% SSE  at  13.0 mph - / hr 1061 ft 1:58 PM CDT Normal
MesoWest NEBCTY , Nebraska City, NE 70 °F - - - North  at  - 0.00 in / hr 994 ft 12:30 PM CDT MADIS

Show More Stations Show Fewer Stations

What do you think?

We're not finished. Please let us know what you like, what you don't like, and what you are still missing.